Grand Junction, CO (81505)

9:02 AM MDT on August 27, 2016 (GMT -0600)
| | Change Station

Elev -9999 ft 0.00 °N, 0.00 °E | Updated

Partly Cloudy
Partly Cloudy
74 °F
Feels Like 74 °F
N
4
Wind Variable Wind from SE
Gusts mph

Today
High -- | Low -- °F
--% Chance of Precip.
Yesterday
High -- | Low -- °F
Precip. -- in
Pressure 30.04 in
Visibility 10.0 miles
Clouds Clear
Dew Point 47 °F
Humidity 39%
Rainfall --
Snow Depth Not available.
6:39 AM 7:51 PM
Waning Crescent, 24% visible
METAR KGJT 271453Z 11007KT 10SM CLR 18/08 A3019 RMK AO2 SLP170 T01780078 51013 PNO $
Pressure 30.04 in
Visibility 10.0 miles
Clouds Clear
Dew Point 47 °F
Humidity 39%
Rainfall --
Snow Depth Not available.
6:39 AM 7:51 PM
Waning Crescent, 24% visible
METAR KGJT 271453Z 11007KT 10SM CLR 18/08 A3019 RMK AO2 SLP170 T01780078 51013 PNO $

10-Day Weather Forecast

Almanac

Astronomy

Aug. 27, 2016 Rise Set
Actual Time
Civil Twilight
Nautical Twilight
Astronomical Twilight
Moon
Length of Visible Light
Length of Day
Tomorrow will be .
, % of the Moon is Illuminated

Today's Extremes

State Highs State Lows

Community

WunderPhotos

Upload Photos

1,935,354 photos uploaded!

WunderBlog® & News

Nearby

Air Quality

  Air Quality AQ Index Pollutant
Not available.

Snow Depth

Station Depth Elevation

Earthquake Activity

City Distance Mag. Time & Date
Minimum magnitude displayed is 2.5.

Coastal Water Temperatures

Place Temperature

Stations

Nearby Weather Stations

Station Location Temp. Windchill Dew Point Humidity Wind Precip. Elev Updated Type
                   

Watches & Warnings

There are currently no watches in effect.